createdAt,value
2023-02-12T00:02:31.348Z,101500.66
2023-02-12T00:05:37.537Z,101502.41
2023-02-12T00:08:41.016Z,101497.19
2023-02-12T00:11:43.477Z,101501.53
2023-02-12T00:14:45.820Z,101501.53
2023-02-12T00:17:48.259Z,101503.28
2023-02-12T00:20:50.794Z,101492.88
2023-02-12T00:23:53.105Z,101500.66
2023-02-12T00:26:55.536Z,101492.84
2023-02-12T00:30:01.725Z,101505.88
2023-02-12T00:33:04.356Z,101505.88
2023-02-12T00:36:08.323Z,101511.09
2023-02-12T00:39:11.654Z,101516.28
2023-02-12T00:42:13.967Z,101513.72
2023-02-12T00:45:16.714Z,101511.94
2023-02-12T00:48:19.103Z,101513.69
2023-02-12T00:51:21.709Z,101507.59
2023-02-12T00:54:23.875Z,101519.75
2023-02-12T00:57:26.183Z,101517.19
2023-02-12T01:00:28.527Z,101524.09
2023-02-12T01:03:31.131Z,101518.88
2023-02-12T01:06:33.523Z,101521.50
2023-02-12T01:09:35.938Z,101511.94
2023-02-12T01:12:38.284Z,101508.47
2023-02-12T01:15:42.359Z,101496.31
2023-02-12T01:18:45.683Z,101507.59
2023-02-12T01:21:48.250Z,101511.94
2023-02-12T01:24:50.712Z,101513.72
2023-02-12T01:27:56.218Z,101514.56
2023-02-12T01:30:58.682Z,101508.47
2023-02-12T01:34:01.704Z,101508.50
2023-02-12T01:37:04.727Z,101516.28
2023-02-12T01:40:10.289Z,101511.97
2023-02-12T01:43:13.429Z,101523.22
2023-02-12T01:46:16.114Z,101508.47
2023-02-12T01:49:26.917Z,101512.81
2023-02-12T01:52:33.042Z,101510.22
2023-02-12T01:55:35.835Z,101510.22
2023-02-12T01:58:41.713Z,101506.75
2023-02-12T02:01:44.892Z,101507.63
2023-02-12T02:04:52.663Z,101504.16
2023-02-12T02:07:55.168Z,101511.94
2023-02-12T02:10:57.456Z,101511.09
2023-02-12T02:14:18.891Z,101513.72
2023-02-12T02:17:42.674Z,101506.75
2023-02-12T02:21:12.111Z,101515.44
2023-02-12T02:24:35.808Z,101522.38
2023-02-12T02:27:59.440Z,101517.16
2023-02-12T02:31:17.557Z,101523.22
2023-02-12T02:34:29.875Z,101515.44
2023-02-12T02:38:00.570Z,101513.69
2023-02-12T02:41:26.335Z,101511.06
2023-02-12T02:44:47.529Z,101507.63
2023-02-12T02:48:00.620Z,101522.38
2023-02-12T02:51:14.655Z,101531.06
2023-02-12T02:54:26.341Z,101517.16
2023-02-12T02:57:39.297Z,101507.63
2023-02-12T03:00:56.257Z,101518.03
2023-02-12T03:04:33.177Z,101526.72
2023-02-12T03:07:42.054Z,101518.88
2023-02-12T03:10:50.126Z,101525.84
2023-02-12T03:14:07.568Z,101532.78
2023-02-12T03:17:16.367Z,101524.13
2023-02-12T03:20:29.696Z,101527.56
2023-02-12T03:23:40.716Z,101537.12
2023-02-12T03:26:48.728Z,101548.44
2023-02-12T03:29:52.294Z,101538.00
2023-02-12T03:33:06.777Z,101553.62
2023-02-12T03:36:20.412Z,101547.53
2023-02-12T03:40:02.671Z,101547.56
2023-02-12T03:43:23.788Z,101560.56
2023-02-12T03:46:52.481Z,101558.84
2023-02-12T03:50:10.069Z,101564.03
2023-02-12T03:53:12.904Z,101564.88
2023-02-12T03:56:24.276Z,101574.41
2023-02-12T03:59:27.070Z,101575.31
2023-02-12T04:02:29.617Z,101570.06
2023-02-12T04:05:32.178Z,101574.38
2023-02-12T04:08:34.832Z,101582.19
2023-02-12T04:12:10.294Z,101581.31
2023-02-12T04:15:21.529Z,101590.03
2023-02-12T04:18:45.038Z,101587.38
2023-02-12T04:22:23.591Z,101589.13
2023-02-12T04:25:25.915Z,101598.72
2023-02-12T04:28:37.834Z,101605.66
2023-02-12T04:31:48.737Z,101600.44
2023-02-12T04:35:03.106Z,101609.09
2023-02-12T04:38:14.052Z,101609.06
2023-02-12T04:41:16.444Z,101607.28
2023-02-12T04:44:24.521Z,101600.28
2023-02-12T04:47:26.841Z,101585.38
2023-02-12T04:50:41.009Z,101595.69
2023-02-12T04:53:43.337Z,101590.34
2023-02-12T04:56:46.366Z,101590.31
2023-02-12T04:59:48.795Z,101580.69
2023-02-12T05:02:51.056Z,101584.16
2023-02-12T05:05:53.551Z,101589.41
2023-02-12T05:08:57.512Z,101589.44
2023-02-12T05:11:59.837Z,101589.56
2023-02-12T05:15:02.342Z,101600.00
2023-02-12T05:18:04.840Z,101598.28
2023-02-12T05:21:07.305Z,101616.66
2023-02-12T05:24:09.808Z,101618.44
2023-02-12T05:27:12.409Z,101612.34
2023-02-12T05:30:14.932Z,101629.72
2023-02-12T05:33:17.260Z,101646.19
2023-02-12T05:36:23.515Z,101644.47
2023-02-12T05:39:26.044Z,101641.06
2023-02-12T05:42:29.836Z,101641.19
2023-02-12T05:45:33.420Z,101648.97
2023-02-12T05:48:36.589Z,101656.75
2023-02-12T05:51:39.580Z,101666.31
2023-02-12T05:54:42.029Z,101668.03
2023-02-12T05:57:44.377Z,101668.00
2023-02-12T06:00:46.744Z,101681.03
2023-02-12T06:03:49.432Z,101688.84
2023-02-12T06:06:52.788Z,101680.09
2023-02-12T06:09:57.816Z,101681.78
2023-02-12T06:13:00.200Z,101685.25
2023-02-12T06:16:02.927Z,101682.50
2023-02-12T06:19:06.555Z,101701.72
2023-02-12T06:22:08.945Z,101707.87
2023-02-12T06:25:11.227Z,101717.41
2023-02-12T06:28:13.579Z,101723.44
2023-02-12T06:31:21.454Z,101731.03
2023-02-12T06:34:23.796Z,101737.00
2023-02-12T06:37:26.312Z,101722.88
2023-02-12T06:40:28.866Z,101729.88
2023-02-12T06:43:31.284Z,101723.72
2023-02-12T06:46:33.764Z,101731.41
2023-02-12T06:49:36.134Z,101724.34
2023-02-12T06:52:38.538Z,101729.44
2023-02-12T06:55:41.985Z,101724.19
2023-02-12T06:58:46.921Z,101720.59
2023-02-12T07:01:49.229Z,101728.31
2023-02-12T07:04:51.590Z,101721.31
2023-02-12T07:07:54.006Z,101718.59
2023-02-12T07:10:56.298Z,101737.91
2023-02-12T07:13:59.056Z,101745.75
2023-02-12T07:17:05.050Z,101763.22
2023-02-12T07:20:08.330Z,101765.81
2023-02-12T07:23:13.881Z,101752.72
2023-02-12T07:26:16.813Z,101738.75
2023-02-12T07:29:19.158Z,101752.59
2023-02-12T07:32:21.497Z,101754.09
2023-02-12T07:35:23.788Z,101756.78
2023-02-12T07:38:26.068Z,101744.69
2023-02-12T07:41:30.669Z,101746.13
2023-02-12T07:44:34.571Z,101745.53
2023-02-12T07:47:38.728Z,101734.44
2023-02-12T07:50:41.064Z,101739.16
2023-02-12T07:53:43.801Z,101738.75
2023-02-12T07:56:47.534Z,101745.34
2023-02-12T07:59:49.976Z,101748.78
2023-02-12T08:02:55.672Z,101756.91
2023-02-12T08:05:58.302Z,101761.94
2023-02-12T08:09:04.256Z,101774.66
2023-02-12T08:12:06.929Z,101767.00
2023-02-12T08:15:09.623Z,101773.16
2023-02-12T08:18:11.987Z,101764.72
2023-02-12T08:21:17.973Z,101770.56
2023-02-12T08:24:22.373Z,101783.97
2023-02-12T08:27:24.791Z,101796.31
2023-02-12T08:30:28.356Z,101796.84
2023-02-12T08:33:33.690Z,101808.09
2023-02-12T08:36:40.413Z,101807.25
2023-02-12T08:39:42.985Z,101808.00
2023-02-12T08:42:45.334Z,101827.88
2023-02-12T08:45:47.714Z,101821.69
2023-02-12T08:48:54.884Z,101824.59
2023-02-12T08:51:59.134Z,101828.81
2023-02-12T08:55:01.839Z,101827.44
2023-02-12T08:58:04.359Z,101832.28
2023-02-12T09:01:12.068Z,101831.97
2023-02-12T09:04:23.997Z,101833.25
2023-02-12T09:07:26.956Z,101840.59
2023-02-12T09:10:29.304Z,101829.87
2023-02-12T09:13:33.345Z,101833.00
2023-02-12T09:16:37.583Z,101836.91
2023-02-12T09:19:40.129Z,101848.16
2023-02-12T09:22:43.028Z,101827.16
2023-02-12T09:25:46.964Z,101860.59
2023-02-12T09:28:50.980Z,101862.19
2023-02-12T09:31:54.267Z,101860.97
2023-02-12T09:34:57.108Z,101873.13
2023-02-12T09:37:59.458Z,101866.72
2023-02-12T09:41:39.286Z,101859.56
2023-02-12T09:45:07.926Z,101866.69
2023-02-12T09:48:31.091Z,101868.97
2023-02-12T09:51:33.693Z,101883.91
2023-02-12T09:54:39.842Z,101882.75
2023-02-12T09:57:43.007Z,101890.03
2023-02-12T10:00:46.424Z,101893.12
2023-02-12T10:03:51.877Z,101891.84
2023-02-12T10:07:07.671Z,101895.31
2023-02-12T10:10:32.329Z,101899.50
2023-02-12T10:14:01.790Z,101907.41
2023-02-12T10:17:35.370Z,101903.00
2023-02-12T10:20:43.580Z,101909.03
2023-02-12T10:24:06.712Z,101907.87
2023-02-12T10:27:19.288Z,101905.81
2023-02-12T10:30:41.111Z,101897.78
2023-02-12T10:33:49.752Z,101893.75
2023-02-12T10:36:58.631Z,101896.06
2023-02-12T10:40:32.857Z,101877.03
2023-02-12T10:43:35.655Z,101878.81
2023-02-12T10:46:39.107Z,101883.41
2023-02-12T10:49:42.243Z,101878.03
2023-02-12T10:52:55.247Z,101873.44
2023-02-12T10:56:13.138Z,101873.31
2023-02-12T10:59:24.394Z,101871.69
2023-02-12T11:02:30.794Z,101868.41
2023-02-12T11:05:37.318Z,101868.47
2023-02-12T11:08:41.382Z,101863.87
2023-02-12T11:11:44.186Z,101868.03
2023-02-12T11:14:59.207Z,101861.78
2023-02-12T11:18:05.738Z,101849.34
2023-02-12T11:21:10.975Z,101866.12
2023-02-12T11:24:38.849Z,101870.16
2023-02-12T11:27:45.156Z,101872.69
2023-02-12T11:30:59.110Z,101869.56
2023-02-12T11:34:04.795Z,101868.84
2023-02-12T11:37:17.749Z,101870.91
2023-02-12T11:40:48.478Z,101865.13
2023-02-12T11:43:52.192Z,101869.06
2023-02-12T11:47:04.058Z,101873.22
2023-02-12T11:50:31.844Z,101873.13
2023-02-12T11:53:40.884Z,101872.12
2023-02-12T11:56:47.008Z,101864.69
2023-02-12T11:59:50.225Z,101856.91
2023-02-12T12:03:28.323Z,101857.78
2023-02-12T12:06:46.742Z,101863.16
2023-02-12T12:10:13.886Z,101866.97
2023-02-12T12:13:28.701Z,101865.13
2023-02-12T12:17:03.866Z,101863.69
2023-02-12T12:20:30.000Z,101853.25
2023-02-12T12:23:37.940Z,101842.19
2023-02-12T12:26:42.938Z,101838.44
2023-02-12T12:29:57.940Z,101844.91
2023-02-12T12:33:05.459Z,101842.06
2023-02-12T12:36:16.838Z,101848.41
2023-02-12T12:39:27.249Z,101844.91
2023-02-12T12:43:07.511Z,101841.44
2023-02-12T12:46:41.461Z,101839.94
2023-02-12T12:50:25.553Z,101841.72
2023-02-12T12:53:46.993Z,101840.91
2023-02-12T12:57:10.711Z,101844.59
2023-02-12T13:00:51.124Z,101848.81
2023-02-12T13:04:36.578Z,101853.13
2023-02-12T13:07:47.531Z,101846.31
2023-02-12T13:11:01.452Z,101852.53
2023-02-12T13:14:25.957Z,101845.44
2023-02-12T13:18:09.355Z,101846.81
2023-02-12T13:21:34.640Z,101842.59
2023-02-12T13:25:03.347Z,101838.81
2023-02-12T13:28:12.980Z,101835.34
2023-02-12T13:31:37.018Z,101840.91
2023-02-12T13:34:43.446Z,101840.00
2023-02-12T13:37:57.519Z,101841.16
2023-02-12T13:41:07.645Z,101842.88
2023-02-12T13:44:17.170Z,101851.06
2023-02-12T13:48:25.585Z,101857.37
2023-02-12T13:51:39.917Z,101856.81
2023-02-12T13:54:55.722Z,101856.91
2023-02-12T13:58:31.574Z,101858.44
2023-02-12T14:01:45.850Z,101846.97
2023-02-12T14:05:03.842Z,101854.91
2023-02-12T14:08:08.481Z,101856.13
2023-02-12T14:11:21.264Z,101854.09
2023-02-12T14:14:33.329Z,101857.84
2023-02-12T14:17:38.498Z,101846.25
2023-02-12T14:20:44.176Z,101851.47
2023-02-12T14:23:48.244Z,101845.06
2023-02-12T14:26:52.351Z,101839.34
2023-02-12T14:30:32.561Z,101854.03
2023-02-12T14:33:36.255Z,101853.63
2023-02-12T14:36:44.366Z,101847.69
2023-02-12T14:39:49.528Z,101840.16
2023-02-12T14:42:57.605Z,101849.53
2023-02-12T14:46:25.867Z,101847.72
2023-02-12T14:49:36.857Z,101854.37
2023-02-12T14:52:50.885Z,101859.16
2023-02-12T14:55:54.823Z,101857.63
2023-02-12T14:59:04.316Z,101862.28
2023-02-12T15:02:15.131Z,101864.00
2023-02-12T15:05:27.038Z,101864.09
2023-02-12T15:08:51.831Z,101869.41
2023-02-12T15:12:11.245Z,101868.59
2023-02-12T15:15:45.987Z,101872.19
2023-02-12T15:19:00.025Z,101872.38
2023-02-12T15:22:03.974Z,101872.44
2023-02-12T15:25:30.827Z,101867.16
2023-02-12T15:28:38.349Z,101870.84
2023-02-12T15:31:42.896Z,101872.50
2023-02-12T15:34:50.744Z,101869.03
2023-02-12T15:37:56.351Z,101880.75
2023-02-12T15:41:02.359Z,101880.69
2023-02-12T15:44:22.738Z,101879.84
2023-02-12T15:47:28.546Z,101882.41
2023-02-12T15:50:34.122Z,101877.28
2023-02-12T15:53:40.855Z,101880.84
2023-02-12T15:56:44.859Z,101885.34
2023-02-12T15:59:57.750Z,101882.81
2023-02-12T16:03:01.580Z,101891.72
2023-02-12T16:06:13.926Z,101897.03
2023-02-12T16:09:29.499Z,101898.03
2023-02-12T16:12:38.240Z,101902.53
2023-02-12T16:15:43.599Z,101909.62
2023-02-12T16:19:03.648Z,101908.69
2023-02-12T16:22:15.042Z,101911.41
2023-02-12T16:25:26.317Z,101915.88
2023-02-12T16:28:32.910Z,101915.13
2023-02-12T16:31:37.393Z,101915.25
2023-02-12T16:34:42.535Z,101920.75
2023-02-12T16:37:51.609Z,101918.19
2023-02-12T16:41:21.593Z,101925.31
2023-02-12T16:44:33.175Z,101938.56
2023-02-12T16:47:37.403Z,101940.41
2023-02-12T16:50:51.068Z,101952.72
2023-02-12T16:53:58.245Z,101954.53
2023-02-12T16:57:03.450Z,101962.44
2023-02-12T17:00:10.806Z,101944.94
2023-02-12T17:03:17.610Z,101960.56
2023-02-12T17:06:25.587Z,101966.72
2023-02-12T17:09:30.480Z,101971.19
2023-02-12T17:12:34.439Z,101980.03
2023-02-12T17:15:44.869Z,101974.97
2023-02-12T17:18:48.642Z,101988.22
2023-02-12T17:21:52.622Z,101993.59
2023-02-12T17:24:56.158Z,101999.84
2023-02-12T17:28:01.447Z,102002.56
2023-02-12T17:31:07.851Z,102002.63
2023-02-12T17:34:12.977Z,102001.81
2023-02-12T17:37:17.965Z,101999.22
2023-02-12T17:40:22.359Z,101996.66
2023-02-12T17:43:26.550Z,102001.97
2023-02-12T17:46:31.056Z,102003.81
2023-02-12T17:49:36.137Z,102016.19
2023-02-12T17:52:43.230Z,102010.03
2023-02-12T17:55:47.716Z,102016.28
2023-02-12T17:58:51.636Z,102012.81
2023-02-12T18:01:57.714Z,102009.25
2023-02-12T18:05:01.647Z,102018.03
2023-02-12T18:08:07.310Z,102020.72
2023-02-12T18:11:12.895Z,102022.44
2023-02-12T18:14:18.782Z,102018.03
2023-02-12T18:17:23.043Z,102020.59
2023-02-12T18:20:29.125Z,102023.22
2023-02-12T18:23:36.249Z,102019.63
2023-02-12T18:26:40.422Z,102021.34
2023-02-12T18:29:44.723Z,102028.38
2023-02-12T18:32:48.879Z,102026.44
2023-02-12T18:36:10.660Z,102034.28
2023-02-12T18:39:19.579Z,102031.53
2023-02-12T18:42:24.449Z,102030.41
2023-02-12T18:45:29.701Z,102033.91
2023-02-12T18:48:34.615Z,102045.31
2023-02-12T18:51:41.828Z,102052.44
2023-02-12T18:54:49.577Z,102058.62
2023-02-12T18:57:54.566Z,102063.09
2023-02-12T19:00:59.454Z,102064.94
2023-02-12T19:04:07.571Z,102061.53
2023-02-12T19:07:13.343Z,102057.31
2023-02-12T19:10:22.932Z,102053.91
2023-02-12T19:13:27.264Z,102057.50
2023-02-12T19:16:34.303Z,102057.56
2023-02-12T19:19:39.202Z,102060.25
2023-02-12T19:22:48.408Z,102059.47
2023-02-12T19:25:52.793Z,102063.87
2023-02-12T19:28:59.670Z,102073.59
2023-02-12T19:32:05.392Z,102071.91
2023-02-12T19:35:09.488Z,102065.81
2023-02-12T19:38:13.181Z,102074.63
2023-02-12T19:41:20.212Z,102065.94
2023-02-12T19:44:29.284Z,102068.59
2023-02-12T19:47:35.640Z,102070.44
2023-02-12T19:50:46.984Z,102066.12
2023-02-12T19:53:59.512Z,102062.62
2023-02-12T19:57:09.328Z,102071.41
2023-02-12T20:00:14.368Z,102081.06
2023-02-12T20:03:20.817Z,102084.63
2023-02-12T20:06:31.050Z,102086.44
2023-02-12T20:09:36.061Z,102085.56
2023-02-12T20:12:43.776Z,102086.47
2023-02-12T20:15:48.786Z,102080.41
2023-02-12T20:18:56.726Z,102089.22
2023-02-12T20:22:05.540Z,102097.19
2023-02-12T20:25:09.895Z,102097.28
2023-02-12T20:28:13.968Z,102100.00
2023-02-12T20:31:29.124Z,102099.09
2023-02-12T20:34:45.761Z,102099.94
2023-02-12T20:38:07.913Z,102101.72
2023-02-12T20:41:14.040Z,102106.94
2023-02-12T20:44:21.803Z,102102.53
2023-02-12T20:47:34.241Z,102096.38
2023-02-12T20:50:38.894Z,102096.38
2023-02-12T20:53:44.367Z,102100.69
2023-02-12T20:56:49.804Z,102093.78
2023-02-12T20:59:57.462Z,102101.63
2023-02-12T21:03:04.570Z,102097.25
2023-02-12T21:06:10.180Z,102103.38
2023-02-12T21:09:15.175Z,102093.78
2023-02-12T21:12:20.217Z,102106.06
2023-02-12T21:15:25.290Z,102113.06
2023-02-12T21:18:33.451Z,102117.50
2023-02-12T21:21:40.247Z,102113.16
2023-02-12T21:24:43.997Z,102114.06
2023-02-12T21:27:47.381Z,102112.38
2023-02-12T21:30:50.709Z,102114.97
2023-02-12T21:33:59.887Z,102114.13
2023-02-12T21:37:05.301Z,102113.31
2023-02-12T21:40:10.860Z,102106.38
2023-02-12T21:43:14.213Z,102110.78
2023-02-12T21:46:18.662Z,102112.53
2023-02-12T21:49:28.703Z,102116.06
2023-02-12T21:52:32.012Z,102112.59
2023-02-12T21:55:38.194Z,102114.34
2023-02-12T21:58:41.222Z,102109.09
2023-02-12T22:01:49.862Z,102114.31
2023-02-12T22:04:54.832Z,102113.44
2023-02-12T22:07:57.372Z,102113.44
2023-02-12T22:11:06.704Z,102111.66
2023-02-12T22:14:13.003Z,102119.53
2023-02-12T22:17:15.492Z,102113.44
2023-02-12T22:20:18.657Z,102113.47
2023-02-12T22:23:20.953Z,102121.34
2023-02-12T22:26:28.752Z,102115.28
2023-02-12T22:29:31.300Z,102116.16
2023-02-12T22:32:33.930Z,102122.22
2023-02-12T22:35:36.340Z,102116.12
2023-02-12T22:38:39.870Z,102122.31
2023-02-12T22:41:42.768Z,102124.09
2023-02-12T22:44:45.143Z,102123.31
2023-02-12T22:47:47.449Z,102125.09
2023-02-12T22:50:49.772Z,102118.19
2023-02-12T22:53:52.228Z,102134.78
2023-02-12T22:56:54.633Z,102131.28
2023-02-12T22:59:56.973Z,102135.66
2023-02-12T23:02:59.410Z,102138.28
2023-02-12T23:06:02.770Z,102140.91
2023-02-12T23:09:05.423Z,102147.00
2023-02-12T23:12:09.750Z,102142.63
2023-02-12T23:15:12.110Z,102146.09
2023-02-12T23:18:15.642Z,102139.09
2023-02-12T23:21:18.054Z,102143.44
2023-02-12T23:24:20.437Z,102147.78
2023-02-12T23:27:22.804Z,102152.09
2023-02-12T23:30:25.132Z,102158.13
2023-02-12T23:33:27.751Z,102153.72
2023-02-12T23:36:30.157Z,102155.41
2023-02-12T23:39:32.477Z,102160.59
2023-02-12T23:42:34.854Z,102153.62
2023-02-12T23:45:37.242Z,102147.47
2023-02-12T23:48:39.688Z,102155.25
2023-02-12T23:51:42.066Z,102160.44
2023-02-12T23:54:44.370Z,102162.13
2023-02-12T23:57:47.670Z,102168.19
